Hlavní strana
METAR-TAF:

METAR-TAF

Letiště :

Muskogee, Oklahoma, Spojené státy americké

zeměpisná šířka: 35-39-25N, zeměpisná délka: 095-21-35W, výška: 185 m

Aktuální stav počasí

Zpráva byla vytvořena před 35 minutami, v 10:53 UTC
Severozápadní vítr 13 kt s nárazy do 20 kt
Teplota 2°C
Vlhkost vzduchu 80%
Tlak 1017 hPa
Viditelnost: 16.1 km
Zataženo ve výšce 1700 ft

METAR: KMKO 241053Z AUTO 31013G20KT 10SM OVC017 02/M01 A3003 RMK AO2 SLP170 T00221011

Čas: 05:28 (11:28 UTC)


TAF: chybějící

Stav a předpovědi počasí z více než 4 000 letišť (zprávy METAR a TAF).

Červené a žluté tečky na mapě představují dostupné meteorologické stanice.

Když kurzor umístíte na tečku, zobrazí se název stanice.

Pak kliknutím zobrazíte stav a předpověď počasí.

Chcete-li změnit mapu, kliknutím na zelené tlačítko se znaménkem +mapu přiblížíte, kliknutím na zelené tlačítko se znaménkem – mapu oddálíte a kliknutím na zelené šipky přejdete na sousední mapy.


METAR-TAF: